Thunder radar more information blitzortung!


Radar de pluja more information rain snow radar


Visita la nostra xarxa de llocs de meteo:

Template documentation
and downloads

And another site



No particular awareness of the weather is required.    There are no Weather-warnings

Pagina Historial Weather Underground text

Diari Resum Novembre 12, 2017 Unitats:  Imperial    Mètric   Tant
« Previous Dia
SegĂźent Dia »
Diari Setmana Mensual Anual Personalitzada
  Maxima: Minima: Media:
Temperatura: 65.5 °F 45.9 °F 54.1 °F
Punt de rosada: 48.7 °F 37.2 °F 42.6 °F
Humitat: 74 % 53 % 65 %
Wind Speed: 14 mph 0 mph 3.2 mph
RĂ fegues de vent: 14 mph - -
Vent:- - SSE
Pression baro: 30.2 in 29.8 in -
Precipitacions: 0 in    
Historical Graphs
 
 
Dades de taula per Novembre 12, 2017
Temps Temperatura Punt de rosada Pression baro Vent Wind Speed RĂ fegues de vent Humitat Rainfall Rate (Hourly)
00:04 52.2 °F 41.2 °F 30.2 in NNW 1.2 mph   66 % 0 in
00:09 52.2 °F 41.2 °F 30.2 in NNW 1.2 mph   66 % 0 in
00:14 52 °F 41 °F 30.2 in NNE 2.3 mph 2.3 mph 66 % 0 in
00:19 51.8 °F 40.8 °F 30.2 in NE 2.3 mph 2.3 mph 66 % 0 in
00:24 51.8 °F 41.2 °F 30.2 in Calm     67 % 0 in
00:29 52 °F 41.4 °F 30.2 in NNW 1.6 mph   67 % 0 in
00:34 51.8 °F 40.8 °F 30.2 in NW 1.6 mph 1.6 mph 66 % 0 in
00:39 51.8 °F 41.2 °F 30.2 in Calm     67 % 0 in
00:44 51.8 °F 41.2 °F 30.2 in NNW 1.6 mph   67 % 0 in
00:49 51.4 °F 40.8 °F 30.2 in NNW 1.2 mph   67 % 0 in
00:54 51.4 °F 40.8 °F 30.2 in NNE 1.4 mph   67 % 0 in
00:56 51.4 °F 40.8 °F 30.2 in ENE 2.3 mph 2.3 mph 67 % 0 in
01:01 51.4 °F 40.8 °F 30.2 in NE 2.3 mph 2.3 mph 67 % 0 in
01:06 51.4 °F 40.8 °F 30.2 in NE 2.3 mph 2.3 mph 67 % 0 in
01:11 51.1 °F 40.1 °F 30.2 in NNE 2.4 mph 2.4 mph 66 % 0 in
01:16 51.1 °F 40.5 °F 30.2 in NNE 2.3 mph 2.3 mph 67 % 0 in
01:21 50.9 °F 40.3 °F 30.2 in NNE 2.3 mph 2.3 mph 67 % 0 in
01:26 50.9 °F 40.3 °F 30.2 in NNW 2.3 mph   67 % 0 in
01:31 50.7 °F 40.3 °F 30.2 in NE 1.2 mph 1.2 mph 67 % 0 in
01:36 50.7 °F 40.3 °F 30.2 in North 2.3 mph 2.3 mph 67 % 0 in
01:41 50.4 °F 39.7 °F 30.2 in NNE 2.3 mph 2.3 mph 67 % 0 in
01:46 50.4 °F 39.7 °F 30.2 in West 2.3 mph 2.3 mph 67 % 0 in
01:51 49.8 °F 39.4 °F 30.1 in West 3.5 mph   67 % 0 in
01:56 50.4 °F 39.7 °F 30.1 in NNW 4.6 mph 4.6 mph 67 % 0 in
02:01 50 °F 39.6 °F 30.1 in West 2.3 mph 2.3 mph 67 % 0 in
02:06 49.8 °F 39.4 °F 30.1 in West 2.3 mph 2.3 mph 67 % 0 in
02:11 50.2 °F 39.6 °F 30.1 in West 2.3 mph   67 % 0 in
02:16 50.2 °F 39.9 °F 30.1 in WNW 1.2 mph   68 % 0 in
02:21 50.4 °F 40.3 °F 30.1 in NNW 1.2 mph   68 % 0 in
02:26 50.2 °F 39.9 °F 30.1 in WNW 1.6 mph   68 % 0 in
02:31 50.2 °F 39.9 °F 30.1 in WNW 1.6 mph 1.6 mph 68 % 0 in
02:36 50 °F 39.7 °F 30.1 in WNW 2.4 mph 2.4 mph 68 % 0 in
02:41 50 °F 39.7 °F 30.1 in NE 1.2 mph 1.4 mph 68 % 0 in
02:47 49.8 °F 39.7 °F 30.1 in SW 1.4 mph 1.4 mph 68 % 0 in
02:52 49.6 °F 39.6 °F 30.1 in WSW 1.6 mph 1.6 mph 68 % 0 in
02:57 49.5 °F 39.7 °F 30.1 in SSW 1.4 mph 1.4 mph 69 % 0 in
03:02 49.1 °F 39.4 °F 30.1 in Calm     69 % 0 in
03:07 48.9 °F 39.2 °F 30.1 in SSW 1.2 mph   69 % 0 in
03:12 48.9 °F 39.2 °F 30.1 in SSW 2.3 mph 2.3 mph 69 % 0 in
03:17 48.7 °F 39 °F 30.1 in SW 2.3 mph 2.3 mph 69 % 0 in
03:22 48.6 °F 38.8 °F 30.1 in West 1.2 mph 1.2 mph 69 % 0 in
03:27 48.7 °F 39.4 °F 30.1 in Calm     70 % 0 in
03:32 48.7 °F 39.4 °F 30.1 in NNE 2.3 mph 2.3 mph 70 % 0 in
03:37 48.9 °F 39.6 °F 30.1 in North 1.6 mph   70 % 0 in
03:42 49.1 °F 39.7 °F 30.1 in NE 3.5 mph 3.5 mph 70 % 0 in
03:47 49.3 °F 39.9 °F 30.1 in Calm     70 % 0 in
03:52 49.1 °F 39.7 °F 30.1 in Calm     70 % 0 in
03:57 48.9 °F 39.6 °F 30.1 in NNE 2.3 mph 2.3 mph 70 % 0 in
04:02 48.9 °F 39.6 °F 30.1 in NW 1.2 mph   70 % 0 in
04:07 48.9 °F 39.6 °F 30.1 in WNW 1.2 mph   70 % 0 in
04:13 48.9 °F 39.6 °F 30.1 in NE 2.3 mph 2.3 mph 70 % 0 in
04:18 48.9 °F 39.6 °F 30.1 in NE 2.3 mph 2.3 mph 70 % 0 in
04:23 48.6 °F 39.2 °F 30.1 in ENE 2.3 mph 2.3 mph 70 % 0 in
04:24 48.6 °F 39.2 °F 30.1 in NNE 2.6 mph 2.6 mph 70 % 0 in
04:25 48.6 °F 39.2 °F 30.1 in NNE 3.5 mph 3.5 mph 70 % 0 in
04:28 48.6 °F 39.6 °F 30.1 in North 2.3 mph 2.3 mph 71 % 0 in
04:30 48.6 °F 39.2 °F 30.1 in North 3.5 mph 3.5 mph 70 % 0 in
04:35 48.6 °F 39.2 °F 30.1 in North 2.3 mph 2.3 mph 70 % 0 in
04:40 48.6 °F 39.2 °F 30.1 in WSW 2.3 mph 2.3 mph 70 % 0 in
04:45 48.4 °F 39.4 °F 30.1 in Calm     71 % 0 in
04:50 48.2 °F 39.2 °F 30.2 in NNE 1.6 mph   71 % 0 in
05:00 47.8 °F 38.8 °F 30.2 in NE 1.2 mph   71 % 0 in
05:05 47.8 °F 39.2 °F 30.1 in NE 1.2 mph   72 % 0 in
05:10 47.7 °F 39 °F 30.1 in Calm     72 % 0 in
05:15 47.5 °F 38.8 °F 30.1 in Calm     72 % 0 in
05:20 47.3 °F 38.7 °F 30.1 in NW 1.2 mph   72 % 0 in
05:25 47.1 °F 38.7 °F 30.1 in SW 2.2 mph 2.2 mph 72 % 0 in
05:30 46.8 °F 38.1 °F 30.1 in SSE 1.2 mph   72 % 0 in
05:35 46.6 °F 37.9 °F 30.1 in NNE 3.5 mph 3.5 mph 72 % 0 in
05:40 46.6 °F 38.5 °F 30.1 in ENE 1.2 mph   73 % 0 in
05:45 46 °F 37.9 °F 30.1 in Calm     73 % 0 in
05:50 45.9 °F 37.2 °F 30.1 in WSW 2.3 mph 2.3 mph 72 % 0 in
05:55 46.2 °F 37.9 °F 30.1 in West 2.3 mph 2.3 mph 73 % 0 in
06:00 46.6 °F 38.5 °F 30.1 in ENE 3.5 mph 3.5 mph 73 % 0 in
06:05 47.3 °F 39.4 °F 30.1 in WNW 3.5 mph 3.5 mph 74 % 0 in
06:10 47.5 °F 39.4 °F 30.1 in ENE 3.5 mph 3.5 mph 73 % 0 in
06:15 47.5 °F 39.4 °F 30.1 in NNE 2.3 mph 2.3 mph 73 % 0 in
06:20 47.7 °F 39.4 °F 30.1 in NNE 3.5 mph 3.5 mph 73 % 0 in
06:30 47.7 °F 39.4 °F 30.1 in East 1.2 mph 1.4 mph 73 % 0 in
06:35 47.7 °F 39.4 °F 30.1 in NNW 3.5 mph 3.5 mph 73 % 0 in
06:40 47.5 °F 39.4 °F 30.1 in NNW 3.5 mph 3.5 mph 73 % 0 in
06:45 47.5 °F 39.4 °F 30.1 in NW 3.5 mph 3.5 mph 73 % 0 in
06:50 47.7 °F 39.4 °F 30.1 in ENE 3.5 mph 3.5 mph 73 % 0 in
06:55 47.7 °F 39.4 °F 30.1 in NNW 3.5 mph 3.5 mph 73 % 0 in
07:00 47.7 °F 39.4 °F 30.1 in NNW 2.3 mph 2.3 mph 73 % 0 in
07:05 47.5 °F 39.4 °F 30.1 in WNW 2.3 mph 2.3 mph 73 % 0 in
07:10 47.3 °F 39 °F 30.1 in WNW 2.3 mph 2.3 mph 73 % 0 in
07:15 47.3 °F 39 °F 30.1 in NNW 3.5 mph 3.5 mph 73 % 0 in
07:20 47.1 °F 38.8 °F 30.1 in WNW 1.2 mph 1.2 mph 73 % 0 in
07:21 46.9 °F 38.7 °F 30.1 in West 1.2 mph 1.2 mph 73 % 0 in
07:26 46.9 °F 38.7 °F 30.1 in NNE 2.4 mph 2.4 mph 73 % 0 in
07:27 46.9 °F 38.7 °F 30.1 in NW 2.3 mph 2.3 mph 73 % 0 in
07:32 46.8 °F 38.8 °F 30.1 in ENE 2.3 mph 2.3 mph 74 % 0 in
07:37 46.9 °F 39 °F 30.1 in NE 2.3 mph 2.3 mph 74 % 0 in
07:42 47.1 °F 39.4 °F 30.1 in East 2.3 mph 2.3 mph 74 % 0 in
07:43 47.1 °F 39.4 °F 30.1 in ENE 2.3 mph 2.3 mph 74 % 0 in
07:48 47.5 °F 39.6 °F 30.1 in NE 4.7 mph 4.7 mph 74 % 0 in
07:53 47.7 °F 39.7 °F 30.1 in NNE 4.7 mph 4.7 mph 74 % 0 in
07:58 47.8 °F 39.9 °F 30.1 in WSW 1.6 mph   74 % 0 in
08:03 48 °F 40.1 °F 30.1 in WSW 1.2 mph   74 % 0 in
08:08 47.8 °F 39.9 °F 30.1 in NW 1.2 mph   74 % 0 in
08:13 48.2 °F 40.3 °F 30.1 in NW 1.2 mph   74 % 0 in
08:18 48.7 °F 40.8 °F 30.1 in ENE 2.3 mph 2.3 mph 74 % 0 in
08:23 48.6 °F 40.3 °F 30.1 in SW 2.3 mph 2.3 mph 73 % 0 in
08:28 49.1 °F 40.8 °F 30.1 in NNE 1.4 mph 1.4 mph 73 % 0 in
08:33 49.8 °F 41.5 °F 30.1 in North 2.3 mph 2.3 mph 73 % 0 in
08:38 50.2 °F 41.9 °F 30.1 in ENE 2.3 mph 2.3 mph 73 % 0 in
08:43 50.7 °F 42.1 °F 30.1 in WNW 2.3 mph 2.3 mph 72 % 0 in
08:48 51.3 °F 42.4 °F 30.1 in ENE 1.6 mph 1.6 mph 72 % 0 in
08:53 51.8 °F 43.2 °F 30.1 in West 2.3 mph 2.3 mph 72 % 0 in
08:58 51.8 °F 42.6 °F 30.1 in ENE 3.1 mph 3.1 mph 71 % 0 in
09:03 52.2 °F 43 °F 30.1 in NNW 2.3 mph 2.3 mph 71 % 0 in
09:08 52.7 °F 43.5 °F 30.1 in NW 2.3 mph 2.3 mph 71 % 0 in
09:13 52.5 °F 43 °F 30.1 in NE 3.5 mph 3.5 mph 70 % 0 in
09:18 52.9 °F 43 °F 30.1 in North 3.5 mph 3.5 mph 69 % 0 in
09:23 53.1 °F 43.2 °F 30.1 in ENE 3.5 mph 3.5 mph 69 % 0 in
09:28 53.8 °F 43.9 °F 30.1 in NNE 1.2 mph   69 % 0 in
09:34 54 °F 44.1 °F 30.1 in NNE 2.3 mph 2.6 mph 69 % 0 in
09:39 54 °F 43.5 °F 30.1 in NNE 4.6 mph 4.6 mph 68 % 0 in
09:44 53.8 °F 43.5 °F 30.1 in NNE 5.6 mph 5.6 mph 68 % 0 in
09:49 53.6 °F 43.3 °F 30.1 in North 5.4 mph 5.4 mph 68 % 0 in
09:54 53.6 °F 43.3 °F 30.1 in ENE 4.6 mph 4.6 mph 68 % 0 in
09:59 54 °F 43.5 °F 30.1 in ENE 4.6 mph 4.6 mph 68 % 0 in
10:04 54.3 °F 43.5 °F 30.1 in NNE 6.2 mph 6.2 mph 67 % 0 in
10:09 54.3 °F 43.5 °F 30.1 in ENE 5.9 mph 5.9 mph 67 % 0 in
10:14 55.2 °F 44.4 °F 30.1 in NE 2.3 mph 2.3 mph 67 % 0 in
10:19 55.6 °F 44.8 °F 30.1 in ENE 3.5 mph 3.5 mph 67 % 0 in
10:24 55.9 °F 45.1 °F 30.1 in NNE 3.5 mph 3.5 mph 67 % 0 in
10:29 56.5 °F 45.7 °F 30.1 in NW 3.5 mph 3.5 mph 67 % 0 in
10:34 57.2 °F 45.9 °F 30.1 in WSW 3.1 mph 3.1 mph 66 % 0 in
10:39 57.6 °F 45.9 °F 30.1 in West 4.6 mph 4.6 mph 65 % 0 in
10:44 57.6 °F 45.9 °F 30.1 in NNE 4.6 mph 4.6 mph 65 % 0 in
10:49 57.6 °F 45.9 °F 30.1 in West 4.9 mph 4.9 mph 65 % 0 in
10:54 57.9 °F 45.9 °F 30.1 in West 2.3 mph 2.3 mph 64 % 0 in
10:59 58.5 °F 46.2 °F 30.1 in North 3.5 mph 3.5 mph 64 % 0 in
11:04 58.3 °F 46.2 °F 30.1 in NNW 5.8 mph 5.8 mph 64 % 0 in
11:09 58.6 °F 46 °F 30.1 in South 4 mph 4 mph 63 % 0 in
11:14 58.8 °F 46.2 °F 30.1 in WSW 3.5 mph 3.5 mph 63 % 0 in
11:19 59 °F 46.4 °F 30.1 in WNW 4.3 mph 4.3 mph 63 % 0 in
11:24 59.2 °F 46.6 °F 30.1 in WNW 3.6 mph 4.7 mph 63 % 0 in
11:29 59.2 °F 46.2 °F 30.1 in WNW 4.6 mph 4.6 mph 62 % 0 in
11:34 59.4 °F 46.2 °F 30.1 in NNW 3.5 mph 3.5 mph 62 % 0 in
11:39 59.4 °F 46.2 °F 30.1 in NW 3.5 mph 3.5 mph 62 % 0 in
11:44 58.6 °F 45.1 °F 30.1 in ENE 5.8 mph 5.9 mph 61 % 0 in
11:49 57.9 °F 44.4 °F 30.1 in NNE 5.8 mph 5.8 mph 61 % 0 in
11:54 57.7 °F 44.4 °F 30.1 in NE 9.2 mph 9.2 mph 61 % 0 in
11:59 57.6 °F 44.2 °F 30.1 in East 5.8 mph 5.8 mph 61 % 0 in
12:04 57.6 °F 44.2 °F 30.1 in WNW 8.1 mph 8.1 mph 61 % 0 in
12:09 58.1 °F 45.1 °F 30.1 in ENE 4 mph 4 mph 62 % 0 in
12:14 58.3 °F 45 °F 30.1 in NNW 3.5 mph 3.5 mph 61 % 0 in
12:19 58.5 °F 45.1 °F 30.1 in ENE 5.8 mph 5.8 mph 61 % 0 in
12:24 58.1 °F 44.8 °F 30.1 in NNE 5.6 mph 5.6 mph 61 % 0 in
12:29 58.3 °F 45 °F 30.1 in NE 3.6 mph 3.6 mph 61 % 0 in
12:34 58.3 °F 45 °F 30.1 in ESE 5.9 mph 5.9 mph 61 % 0 in
12:39 58.1 °F 44.8 °F 30.1 in NNE 5.8 mph 5.8 mph 61 % 0 in
12:44 58.3 °F 45 °F 30.1 in NE 11.5 mph 11.5 mph 61 % 0 in
12:49 57.9 °F 44.4 °F 30.1 in NNE 6.9 mph 6.9 mph 61 % 0 in
12:54 58.1 °F 44.8 °F 30.1 in NNE 7.4 mph 7.4 mph 61 % 0 in
12:59 58.3 °F 45 °F 30.1 in ENE 8.1 mph 8.1 mph 61 % 0 in
13:04 58.5 °F 45.1 °F 30.1 in ENE 6.9 mph 6.9 mph 61 % 0 in
13:09 58.5 °F 45.1 °F 30.1 in ENE 6.2 mph 6.2 mph 61 % 0 in
13:14 58.3 °F 45 °F 30.1 in NNE 5.8 mph 5.8 mph 61 % 0 in
13:19 58.3 °F 45 °F 30.1 in ENE 4.6 mph 4.6 mph 61 % 0 in
13:24 58.1 °F 44.8 °F 30.1 in NE 4.9 mph 4.9 mph 61 % 0 in
13:29 58.1 °F 44.8 °F 30.1 in NE 8.1 mph 8.1 mph 61 % 0 in
13:34 57.9 °F 44.1 °F 30.1 in NNE 8.5 mph 8.5 mph 60 % 0 in
13:39 58.1 °F 44.8 °F 30.1 in NNE 4.6 mph 4.6 mph 61 % 0 in
13:44 58.5 °F 45.1 °F 30.1 in NNE 5.4 mph 5.4 mph 61 % 0 in
13:49 58.5 °F 45.1 °F 30.1 in NNE 4.6 mph 4.6 mph 61 % 0 in
13:54 58.5 °F 45.1 °F 30.1 in NNE 8.1 mph 8.1 mph 61 % 0 in
13:59 58.5 °F 45.1 °F 30.1 in NNE 2.3 mph 2.4 mph 61 % 0 in
14:04 58.8 °F 45.3 °F 30 in NNE 5.8 mph 5.8 mph 61 % 0 in
14:09 58.8 °F 45.3 °F 30 in North 5.8 mph 5.8 mph 61 % 0 in
14:14 59 °F 45.7 °F 30 in NNE 4 mph 4 mph 61 % 0 in
14:19 59.4 °F 45.9 °F 30 in NE 4.6 mph 4.6 mph 61 % 0 in
14:24 59.2 °F 45.3 °F 30 in ESE 4.6 mph 4.6 mph 60 % 0 in
14:29 59.4 °F 45.5 °F 30 in NE 3.6 mph 3.6 mph 60 % 0 in
14:30 59.4 °F 45.9 °F 30 in NE 3.5 mph 3.5 mph 61 % 0 in
14:35 59.4 °F 45.5 °F 30 in NNE 6.9 mph 6.9 mph 60 % 0 in
14:40 59.4 °F 45.5 °F 30 in NNE 3.5 mph 3.5 mph 60 % 0 in
14:45 59.7 °F 45.9 °F 30 in NNE 6.9 mph 6.9 mph 60 % 0 in
14:50 59.9 °F 46 °F 30 in NW 5.8 mph 5.8 mph 60 % 0 in
14:55 59.9 °F 46 °F 30 in NNE 5.8 mph 5.8 mph 60 % 0 in
15:00 60.1 °F 46 °F 30 in ENE 3.5 mph 3.5 mph 60 % 0 in
15:05 61.2 °F 47.1 °F 30 in SW 2.3 mph 2.3 mph 60 % 0 in
15:09 62.1 °F 48 °F 30 in SSW 4.6 mph 4.6 mph 60 % 0 in
15:14 63.9 °F 48.7 °F 30 in WNW 4.6 mph 4.6 mph 58 % 0 in
15:19 64.4 °F 48.4 °F 30 in WNW 5.8 mph 5.8 mph 56 % 0 in
15:24 64.4 °F 47.8 °F 30 in SW 2.3 mph 2.3 mph 55 % 0 in
15:29 64.6 °F 48 °F 30 in West 5.8 mph 5.8 mph 55 % 0 in
15:34 64.8 °F 47.7 °F 30 in NE 2.3 mph 2.3 mph 54 % 0 in
15:39 65.1 °F 48 °F 30 in WSW 3.5 mph 3.5 mph 54 % 0 in
15:44 65.5 °F 48.4 °F 30 in NW 4.6 mph 4.6 mph 54 % 0 in
15:49 65.3 °F 48.2 °F 30 in WSW 1.2 mph 1.2 mph 54 % 0 in
15:54 65.5 °F 48.4 °F 30 in SW 3.5 mph 3.5 mph 54 % 0 in
15:59 65.3 °F 47.7 °F 30 in East 2.3 mph 2.3 mph 53 % 0 in
16:04 64.2 °F 46.8 °F 30 in NNW 2.3 mph 2.3 mph 53 % 0 in
16:09 63 °F 46 °F 30 in NNW 3.5 mph 3.5 mph 54 % 0 in
16:14 62.8 °F 45.9 °F 30 in NW 2.3 mph 2.3 mph 54 % 0 in
16:19 62.2 °F 45.9 °F 30 in NNE 3.5 mph 3.5 mph 55 % 0 in
16:24 61.9 °F 45.5 °F 30 in NNE 4 mph 4 mph 55 % 0 in
16:29 61 °F 45.1 °F 30 in SE 3.5 mph 3.5 mph 56 % 0 in
16:34 60.6 °F 44.8 °F 30 in ENE 5.8 mph 5.8 mph 56 % 0 in
16:39 60.4 °F 44.8 °F 30 in NE 2.3 mph 2.3 mph 56 % 0 in
16:44 60.1 °F 44.2 °F 30 in ENE 2.4 mph 2.4 mph 56 % 0 in
16:49 60.1 °F 44.8 °F 30 in ENE 4.6 mph 4.6 mph 57 % 0 in
16:54 59.9 °F 44.6 °F 30 in NE 3.5 mph 3.5 mph 57 % 0 in
16:59 59.4 °F 44.1 °F 30 in NE 3.5 mph 3.5 mph 57 % 0 in
17:04 59.2 °F 43.9 °F 30 in NNE 2.3 mph 2.3 mph 57 % 0 in
17:09 58.8 °F 44.1 °F 30 in NNE 3.5 mph 3.5 mph 58 % 0 in
17:14 58.6 °F 43.9 °F 30 in ESE 1.2 mph   58 % 0 in
17:19 58.8 °F 44.1 °F 30 in SW 2.3 mph 2.3 mph 58 % 0 in
17:24 58.6 °F 44.2 °F 30 in Calm     59 % 0 in
17:29 58.5 °F 44.2 °F 30 in WNW 1.6 mph 1.6 mph 59 % 0 in
17:34 58.3 °F 44.1 °F 30 in SW 2.3 mph 2.3 mph 59 % 0 in
17:39 57.9 °F 44.1 °F 30 in West 2.3 mph 2.3 mph 60 % 0 in
17:44 57.9 °F 44.1 °F 30 in Calm     60 % 0 in
17:49 57.7 °F 43.9 °F 29.9 in WSW 2.4 mph 2.4 mph 60 % 0 in
17:54 57.4 °F 43.5 °F 29.9 in WNW 2.3 mph 2.3 mph 60 % 0 in
17:59 57.6 °F 43.9 °F 29.9 in NNE 2.3 mph 2.3 mph 60 % 0 in
18:04 56.8 °F 43.5 °F 30 in NNE 3.5 mph 3.5 mph 61 % 0 in
18:09 56.5 °F 43.2 °F 30 in ENE 2.9 mph 2.9 mph 61 % 0 in
18:14 56.5 °F 43.5 °F 30 in NNE 4.6 mph 4.6 mph 62 % 0 in
18:19 56.5 °F 43.5 °F 30 in ENE 3.5 mph 3.5 mph 62 % 0 in
18:24 56.1 °F 43.3 °F 30 in North 2.6 mph 2.6 mph 62 % 0 in
18:29 56.1 °F 43.3 °F 30 in NNE 2.3 mph 2.3 mph 62 % 0 in
18:34 55.9 °F 43.2 °F 30 in NNE 1.2 mph   62 % 0 in
18:39 55.9 °F 43.2 °F 30 in WNW 2.3 mph 2.3 mph 62 % 0 in
18:44 55.8 °F 43 °F 30 in Calm     62 % 0 in
18:49 55.8 °F 43 °F 30 in NNE 1.2 mph 1.2 mph 62 % 0 in
18:54 55.6 °F 43.2 °F 30 in NNE 1.2 mph 1.2 mph 63 % 0 in
18:55 55.6 °F 43.2 °F 30 in NNE 1.2 mph   63 % 0 in
19:00 55.2 °F 42.8 °F 30 in Calm     63 % 0 in
19:05 55.2 °F 42.8 °F 30 in Calm     63 % 0 in
19:10 55 °F 42.6 °F 30 in WNW 1.2 mph   63 % 0 in
19:15 54.5 °F 42.6 °F 30 in WSW 1.6 mph 1.6 mph 64 % 0 in
19:20 54.5 °F 42.6 °F 29.9 in Calm     64 % 0 in
19:25 54.3 °F 42.4 °F 29.9 in West 1.2 mph 1.2 mph 64 % 0 in
19:30 54.5 °F 42.6 °F 29.9 in West 2.3 mph 2.3 mph 64 % 0 in
19:35 54.7 °F 42.6 °F 29.9 in WSW 2.3 mph 2.3 mph 64 % 0 in
19:40 54.5 °F 42.6 °F 29.9 in West 1.4 mph 1.4 mph 64 % 0 in
19:45 54.3 °F 42.4 °F 29.9 in West 1.2 mph   64 % 0 in
19:50 54.3 °F 42.8 °F 29.9 in West 1.6 mph 1.6 mph 65 % 0 in
19:55 54.3 °F 42.4 °F 29.9 in SW 3.5 mph 3.5 mph 64 % 0 in
20:00 54.3 °F 42.8 °F 29.9 in WSW 2 mph   65 % 0 in
20:05 54.1 °F 42.6 °F 29.9 in WNW 2.3 mph 2.3 mph 65 % 0 in
20:10 54.3 °F 42.8 °F 29.9 in West 1.2 mph   65 % 0 in
20:15 54.1 °F 42.6 °F 29.9 in WNW 2.4 mph 2.4 mph 65 % 0 in
20:20 54.3 °F 42.8 °F 29.9 in WSW 3.5 mph 3.5 mph 65 % 0 in
20:21 54.3 °F 42.8 °F 29.9 in SW 3.5 mph 3.5 mph 65 % 0 in
20:26 55 °F 43.2 °F 29.9 in West 2.3 mph 2.3 mph 64 % 0 in
20:31 55.6 °F 43.5 °F 29.9 in WSW 3.5 mph 3.5 mph 64 % 0 in
20:36 55.8 °F 43.9 °F 29.9 in West 3.5 mph 3.5 mph 64 % 0 in
20:41 56.3 °F 43.9 °F 29.9 in WSW 5.8 mph 5.8 mph 63 % 0 in
20:46 56.7 °F 44.2 °F 29.9 in West 4.6 mph 4.6 mph 63 % 0 in
20:51 56.7 °F 44.2 °F 29.9 in WSW 4.6 mph 4.6 mph 63 % 0 in
20:56 56.7 °F 43.9 °F 29.9 in WSW 4.3 mph 4.3 mph 62 % 0 in
21:01 56.3 °F 43.3 °F 29.9 in SW 3.8 mph 3.8 mph 62 % 0 in
21:06 56.7 °F 43.9 °F 29.9 in West 3.5 mph 3.5 mph 62 % 0 in
21:11 56.3 °F 43.3 °F 29.9 in West 4.6 mph 4.6 mph 62 % 0 in
21:16 56.5 °F 43.5 °F 29.9 in WSW 3.5 mph 3.5 mph 62 % 0 in
21:21 56.3 °F 43.3 °F 29.9 in WSW 2.2 mph   62 % 0 in
21:26 56.1 °F 43.3 °F 29.9 in WSW 1.4 mph 1.4 mph 62 % 0 in
21:31 56.1 °F 43.3 °F 29.9 in SW 1.2 mph   62 % 0 in
21:36 55.8 °F 43 °F 29.9 in Calm     62 % 0 in
21:41 55.6 °F 42.8 °F 29.9 in NNE 2 mph 2 mph 62 % 0 in
21:46 55.6 °F 42.8 °F 29.9 in NW 2.3 mph 2.3 mph 62 % 0 in
21:51 55.4 °F 42.6 °F 29.9 in NNW 3.5 mph 3.5 mph 62 % 0 in
21:56 55 °F 42.3 °F 29.9 in West 2.3 mph 2.3 mph 62 % 0 in
22:01 54.5 °F 41.7 °F 29.9 in SW 2.3 mph 2.3 mph 62 % 0 in
22:06 54.5 °F 41.7 °F 29.9 in WSW 2.6 mph   62 % 0 in
22:11 54 °F 41.5 °F 29.9 in WNW 2.6 mph 2.6 mph 63 % 0 in
22:16 54.3 °F 42.1 °F 29.9 in WSW 3.5 mph 3.5 mph 63 % 0 in
22:21 54.9 °F 42.4 °F 29.9 in WSW 3.5 mph 3.5 mph 63 % 0 in
22:23 54.9 °F 42.4 °F 29.9 in WSW 4.6 mph 4.6 mph 63 % 0 in
22:26 54.9 °F 42.4 °F 29.9 in NNW 2.4 mph 2.4 mph 63 % 0 in
22:31 54.9 °F 42.4 °F 29.9 in West 3.6 mph 3.6 mph 63 % 0 in
22:36 54.9 °F 42.4 °F 29.9 in WSW 4.6 mph 4.6 mph 63 % 0 in
22:41 54.9 °F 42.4 °F 29.9 in WNW 3.5 mph 3.5 mph 63 % 0 in
22:46 54.9 °F 42.4 °F 29.9 in SSE 2.3 mph 2.3 mph 63 % 0 in
22:51 55 °F 42.6 °F 29.9 in SSW 2.3 mph 2.3 mph 63 % 0 in
22:56 54.9 °F 42.4 °F 29.9 in WNW 2.3 mph   63 % 0 in
23:01 54.9 °F 42.4 °F 29.9 in WSW 2.3 mph 2.3 mph 63 % 0 in
23:06 55 °F 42.6 °F 29.8 in NNW 5.9 mph 5.9 mph 63 % 0 in
23:11 55 °F 42.6 °F 29.8 in NW 2.4 mph 2.4 mph 63 % 0 in
23:16 55.2 °F 42.8 °F 29.8 in South 5.8 mph 5.8 mph 63 % 0 in
23:21 55.4 °F 43 °F 29.8 in SW 9.2 mph 9.2 mph 63 % 0 in
23:26 55.8 °F 43.9 °F 29.8 in West 9.2 mph 9.2 mph 64 % 0 in
23:31 55.9 °F 43.9 °F 29.8 in WSW 8.1 mph 8.1 mph 64 % 0 in
23:36 56.1 °F 44.1 °F 29.8 in WSW 8.1 mph 8.1 mph 64 % 0 in
23:41 56.1 °F 44.1 °F 29.8 in WNW 14 mph 14 mph 64 % 0 in
23:46 56.1 °F 44.1 °F 29.8 in SW 9.2 mph 9.2 mph 64 % 0 in
23:51 56.1 °F 44.1 °F 29.8 in West 9.2 mph 9.2 mph 64 % 0 in
23:56 55.9 °F 43.9 °F 29.8 in West 4.6 mph 4.6 mph 64 % 0 in
Meteo Sesrovires
Elogis d' Weather Underground - 4 mb

Guio original per  Jim McMurry - jmcmurry@mwt.net Adaptat per a la plantilla per  Wim van der Kuil - Leuven-Template.eu

Trobareu la nostra informacio del temps tambe a:

Weather Underground

AWEKAS